Time,TemperatureF,DewpointF,PressureIn,WindDirection,WindDirectionDegrees,WindSpeedMPH,WindSpeedGustMPH,Humidity,HourlyPrecipIn,Conditions,Clouds,dailyrainin,SolarRadiationWatts/m^2,SoftwareType,DateUTC
2013-01-24 00:12:00,27.0,2.0,-100.00,West,276,0.0,4.0,33,-99.99,,,0.00,0.000000,,2013-01-24 07:12:00,
2013-01-24 00:22:00,27.0,2.0,-100.00,West,276,0.0,4.0,33,-99.99,,,0.00,0.000000,,2013-01-24 07:22:00,
2013-01-24 00:53:00,28.0,1.0,-100.00,West,280,2.0,4.0,31,0.00,,,0.00,0.000000,,2013-01-24 07:53:00,
2013-01-24 01:02:00,28.0,1.0,-100.00,West,280,2.0,4.0,31,0.00,,,0.00,0.000000,,2013-01-24 08:02:00,
2013-01-24 01:53:00,30.0,0.0,-100.00,SE,131,0.0,3.0,27,0.00,,,0.00,0.000000,,2013-01-24 08:53:00,
2013-01-24 02:12:00,30.0,0.0,-100.00,SE,131,0.0,3.0,27,0.00,,,0.00,0.000000,,2013-01-24 09:12:00,
2013-01-24 02:22:00,30.0,0.0,-100.00,SE,131,0.0,3.0,27,0.00,,,0.00,0.000000,,2013-01-24 09:22:00,
2013-01-24 02:53:00,30.0,1.0,-100.00,East,93,3.0,4.0,28,0.00,,,0.00,0.000000,,2013-01-24 09:53:00,
2013-01-24 03:02:00,30.0,1.0,-100.00,East,93,3.0,4.0,28,0.00,,,0.00,0.000000,,2013-01-24 10:02:00,
2013-01-24 03:12:00,30.0,1.0,-100.00,East,93,3.0,4.0,28,0.00,,,0.00,0.000000,,2013-01-24 10:12:00,
2013-01-24 03:22:00,30.0,1.0,-100.00,East,93,3.0,4.0,28,0.00,,,0.00,0.000000,,2013-01-24 10:22:00,
2013-01-24 03:53:00,33.0,0.0,-100.00,WSW,237,2.0,3.0,24,0.00,,,0.00,0.000000,,2013-01-24 10:53:00,
2013-01-24 04:02:00,33.0,0.0,-100.00,WSW,237,2.0,3.0,24,0.00,,,0.00,0.000000,,2013-01-24 11:02:00,
2013-01-24 04:12:00,33.0,0.0,-100.00,WSW,237,2.0,3.0,24,0.00,,,0.00,0.000000,,2013-01-24 11:12:00,
2013-01-24 04:22:00,33.0,0.0,-100.00,WSW,237,2.0,3.0,24,0.00,,,0.00,0.000000,,2013-01-24 11:22:00,
2013-01-24 04:53:00,34.0,4.0,-100.00,SSE,162,3.0,4.0,27,0.00,,,0.00,0.000000,,2013-01-24 11:53:00,
2013-01-24 05:03:00,34.0,4.0,-100.00,SSE,162,3.0,4.0,27,0.00,,,0.00,0.000000,,2013-01-24 12:03:00,
2013-01-24 05:12:00,34.0,4.0,-100.00,SSE,162,3.0,4.0,27,0.00,,,0.00,0.000000,,2013-01-24 12:12:00,
2013-01-24 05:22:00,34.0,4.0,-100.00,SSE,162,3.0,4.0,27,0.00,,,0.00,0.000000,,2013-01-24 12:22:00,
2013-01-24 05:53:00,30.0,4.0,-100.00,West,275,2.0,3.0,33,0.00,,,0.00,0.000000,,2013-01-24 12:53:00,
2013-01-24 06:02:00,30.0,4.0,-100.00,West,275,2.0,3.0,33,0.00,,,0.00,0.000000,,2013-01-24 13:02:00,
2013-01-24 06:12:00,30.0,4.0,-100.00,West,275,2.0,3.0,33,0.00,,,0.00,0.000000,,2013-01-24 13:12:00,
2013-01-24 06:22:00,30.0,4.0,-100.00,West,275,2.0,3.0,33,0.00,,,0.00,0.000000,,2013-01-24 13:22:00,
2013-01-24 06:53:00,30.0,6.0,-100.00,North,352,3.0,4.0,35,0.00,,,0.00,0.000000,,2013-01-24 13:53:00,
2013-01-24 07:02:00,30.0,6.0,-100.00,North,352,3.0,4.0,35,0.00,,,0.00,0.000000,,2013-01-24 14:02:00,
2013-01-24 07:12:00,30.0,6.0,-100.00,North,352,3.0,4.0,35,0.00,,,0.00,0.000000,,2013-01-24 14:12:00,
2013-01-24 07:22:00,30.0,6.0,-100.00,North,352,3.0,4.0,35,0.00,,,0.00,0.000000,,2013-01-24 14:22:00,
2013-01-24 07:54:00,32.0,4.0,-100.00,SSE,152,2.0,4.0,30,0.00,,,0.00,0.000000,,2013-01-24 14:54:00,
2013-01-24 08:03:00,32.0,4.0,-100.00,SSE,152,2.0,4.0,30,0.00,,,0.00,0.000000,,2013-01-24 15:03:00,
2013-01-24 08:12:00,32.0,4.0,-100.00,SSE,152,2.0,4.0,30,0.00,,,0.00,0.000000,,2013-01-24 15:12:00,
2013-01-24 08:22:00,32.0,4.0,-100.00,SSE,152,2.0,4.0,30,0.00,,,0.00,0.000000,,2013-01-24 15:22:00,
2013-01-24 08:53:00,32.0,7.0,-100.00,NW,323,2.0,5.0,34,0.00,,,0.00,12.000000,,2013-01-24 15:53:00,
2013-01-24 09:03:00,32.0,7.0,-100.00,NW,323,2.0,5.0,34,0.00,,,0.00,12.000000,,2013-01-24 16:03:00,
2013-01-24 09:12:00,32.0,7.0,-100.00,NW,323,2.0,5.0,34,0.00,,,0.00,12.000000,,2013-01-24 16:12:00,
2013-01-24 09:22:00,32.0,7.0,-100.00,NW,323,2.0,5.0,34,0.00,,,0.00,12.000000,,2013-01-24 16:22:00,
2013-01-24 10:02:00,42.0,8.0,-100.00,North,8,2.0,4.0,24,0.00,,,0.00,176.000000,,2013-01-24 17:02:00,
2013-01-24 10:11:00,42.0,8.0,-100.00,North,8,2.0,4.0,24,0.00,,,0.00,176.000000,,2013-01-24 17:11:00,
2013-01-24 10:21:00,42.0,8.0,-100.00,North,8,2.0,4.0,24,0.00,,,0.00,176.000000,,2013-01-24 17:21:00,
2013-01-24 10:43:00,42.0,12.0,-100.00,ESE,120,3.0,6.0,29,0.00,,,0.00,274.000000,,2013-01-24 17:43:00,
2013-01-24 10:52:00,42.0,12.0,-100.00,ESE,120,3.0,6.0,29,0.00,,,0.00,274.000000,,2013-01-24 17:52:00,
2013-01-24 11:02:00,42.0,12.0,-100.00,ESE,120,3.0,6.0,29,0.00,,,0.00,274.000000,,2013-01-24 18:02:00,
2013-01-24 11:11:00,42.0,12.0,-100.00,ESE,120,3.0,6.0,29,0.00,,,0.00,274.000000,,2013-01-24 18:11:00,
2013-01-24 11:53:00,44.0,14.0,-100.00,SW,230,5.0,9.0,29,0.00,,,0.00,277.000000,,2013-01-24 18:53:00,
2013-01-24 12:01:00,44.0,14.0,-100.00,SW,230,5.0,9.0,29,0.00,,,0.00,277.000000,,2013-01-24 19:01:00,
2013-01-24 12:12:00,44.0,14.0,-100.00,SW,230,5.0,9.0,29,0.00,,,0.00,277.000000,,2013-01-24 19:12:00,
2013-01-24 12:21:00,44.0,14.0,-100.00,SW,230,5.0,9.0,29,0.00,,,0.00,277.000000,,2013-01-24 19:21:00,
2013-01-24 12:42:00,46.0,15.0,-100.00,SW,223,4.0,7.0,28,0.00,,,0.00,394.000000,,2013-01-24 19:42:00,
2013-01-24 12:52:00,46.0,15.0,-100.00,SW,223,4.0,7.0,28,0.00,,,0.00,394.000000,,2013-01-24 19:52:00,
2013-01-24 13:02:00,46.0,15.0,-100.00,SW,223,4.0,7.0,28,0.00,,,0.00,394.000000,,2013-01-24 20:02:00,
2013-01-24 13:11:00,46.0,15.0,-100.00,SW,223,4.0,7.0,28,0.00,,,0.00,394.000000,,2013-01-24 20:11:00,
2013-01-24 13:21:00,46.0,15.0,-100.00,SW,223,4.0,7.0,28,0.00,,,0.00,394.000000,,2013-01-24 20:21:00,
2013-01-24 13:42:00,47.0,16.0,-100.00,West,268,3.0,8.0,29,0.00,,,-99.99,321.000000,,2013-01-24 20:42:00,
2013-01-24 13:52:00,47.0,16.0,-100.00,West,268,3.0,8.0,29,0.00,,,-99.99,321.000000,,2013-01-24 20:52:00,
2013-01-24 14:02:00,47.0,16.0,-100.00,West,268,3.0,8.0,29,0.00,,,-99.99,321.000000,,2013-01-24 21:02:00,
2013-01-24 14:11:00,47.0,16.0,-100.00,West,268,3.0,8.0,29,0.00,,,-99.99,321.000000,,2013-01-24 21:11:00,
2013-01-24 14:21:00,47.0,16.0,-100.00,West,268,3.0,8.0,29,0.00,,,-99.99,321.000000,,2013-01-24 21:21:00,
2013-01-24 14:53:00,46.0,16.0,-100.00,North,9,2.0,4.0,29,0.00,,,0.00,304.000000,,2013-01-24 21:53:00,
2013-01-24 15:02:00,46.0,16.0,-100.00,North,9,2.0,4.0,29,0.00,,,0.00,304.000000,,2013-01-24 22:02:00,
2013-01-24 15:12:00,46.0,16.0,-100.00,North,9,2.0,4.0,29,0.00,,,0.00,304.000000,,2013-01-24 22:12:00,
2013-01-24 15:22:00,46.0,16.0,-100.00,North,9,2.0,4.0,29,0.00,,,0.00,304.000000,,2013-01-24 22:22:00,
2013-01-24 15:53:00,42.0,20.0,-100.00,WSW,248,6.0,11.0,41,0.00,,,0.00,210.000000,,2013-01-24 22:53:00,
2013-01-24 16:02:00,42.0,20.0,-100.00,WSW,248,6.0,11.0,41,0.00,,,0.00,210.000000,,2013-01-24 23:02:00,
2013-01-24 16:11:00,42.0,20.0,-100.00,WSW,248,6.0,11.0,41,0.00,,,0.00,210.000000,,2013-01-24 23:11:00,
2013-01-24 16:21:00,42.0,20.0,-100.00,WSW,248,6.0,11.0,41,0.00,,,0.00,210.000000,,2013-01-24 23:21:00,
2013-01-24 16:52:00,39.0,24.0,-100.00,West,275,4.0,11.0,54,0.00,,,0.00,129.000000,,2013-01-24 23:52:00,
2013-01-24 17:02:00,39.0,24.0,-100.00,West,275,4.0,11.0,54,0.00,,,0.00,129.000000,,2013-01-25 00:02:00,
2013-01-24 17:12:00,39.0,24.0,-100.00,West,275,4.0,11.0,54,0.00,,,0.00,129.000000,,2013-01-25 00:12:00,
2013-01-24 17:21:00,39.0,24.0,-100.00,West,275,4.0,11.0,54,0.00,,,0.00,129.000000,,2013-01-25 00:21:00,
2013-01-24 17:52:00,35.0,29.0,-100.00,NE,53,1.0,7.0,78,0.00,,,0.00,51.000000,,2013-01-25 00:52:00,
2013-01-24 18:01:00,35.0,29.0,-100.00,NE,53,1.0,7.0,78,0.00,,,0.00,51.000000,,2013-01-25 01:01:00,
2013-01-24 18:11:00,35.0,29.0,-100.00,NE,53,1.0,7.0,78,0.00,,,0.00,51.000000,,2013-01-25 01:11:00,
2013-01-24 18:21:00,35.0,29.0,-100.00,NE,53,1.0,7.0,78,0.00,,,0.00,51.000000,,2013-01-25 01:21:00,
2013-01-24 18:42:00,34.0,27.0,-100.00,SE,146,0.0,4.0,75,0.00,,,0.00,7.000000,,2013-01-25 01:42:00,
2013-01-24 18:52:00,34.0,27.0,-100.00,SE,146,0.0,4.0,75,0.00,,,0.00,7.000000,,2013-01-25 01:52:00,
2013-01-24 19:02:00,34.0,27.0,-100.00,SE,146,0.0,4.0,75,0.00,,,0.00,7.000000,,2013-01-25 02:02:00,
2013-01-24 19:11:00,34.0,27.0,-100.00,SE,146,0.0,4.0,75,0.00,,,0.00,7.000000,,2013-01-25 02:11:00,
2013-01-24 19:21:00,34.0,27.0,-100.00,SE,146,0.0,4.0,75,0.00,,,0.00,7.000000,,2013-01-25 02:21:00,
2013-01-24 19:52:00,33.0,29.0,-100.00,East,83,2.0,3.0,85,0.00,,,-99.99,0.000000,,2013-01-25 02:52:00,
2013-01-24 20:02:00,33.0,29.0,-100.00,East,83,2.0,3.0,85,0.00,,,-99.99,0.000000,,2013-01-25 03:02:00,
2013-01-24 20:12:00,33.0,29.0,-100.00,East,83,2.0,3.0,85,0.00,,,-99.99,0.000000,,2013-01-25 03:12:00,
2013-01-24 20:21:00,33.0,29.0,-100.00,East,83,2.0,3.0,85,0.00,,,-99.99,0.000000,,2013-01-25 03:21:00,
2013-01-24 20:52:00,33.0,29.0,-100.00,ESE,105,2.0,4.0,86,0.00,,,0.00,0.000000,,2013-01-25 03:52:00,
2013-01-24 21:02:00,33.0,29.0,-100.00,ESE,105,2.0,4.0,86,0.00,,,0.00,0.000000,,2013-01-25 04:02:00,
2013-01-24 21:11:00,33.0,29.0,-100.00,ESE,105,2.0,4.0,86,0.00,,,0.00,0.000000,,2013-01-25 04:11:00,
2013-01-24 21:22:00,33.0,29.0,-100.00,ESE,105,2.0,4.0,86,0.00,,,0.00,0.000000,,2013-01-25 04:22:00,
2013-01-24 21:51:00,34.0,29.0,-100.00,SW,224,2.0,4.0,81,0.00,,,0.00,0.000000,,2013-01-25 04:51:00,
2013-01-24 22:03:00,34.0,29.0,-100.00,SW,224,2.0,4.0,81,0.00,,,0.00,0.000000,,2013-01-25 05:03:00,
2013-01-24 22:12:00,34.0,29.0,-100.00,SW,224,2.0,4.0,81,0.00,,,0.00,0.000000,,2013-01-25 05:12:00,
2013-01-24 22:22:00,34.0,29.0,-100.00,SW,224,2.0,4.0,81,0.00,,,0.00,0.000000,,2013-01-25 05:22:00,
2013-01-24 22:43:00,33.0,28.0,-100.00,NNE,29,0.0,3.0,82,0.00,,,0.00,0.000000,,2013-01-25 05:43:00,
2013-01-24 22:52:00,33.0,28.0,-100.00,NNE,29,0.0,3.0,82,0.00,,,0.00,0.000000,,2013-01-25 05:52:00,
2013-01-24 23:02:00,33.0,28.0,-100.00,NNE,29,0.0,3.0,82,0.00,,,0.00,0.000000,,2013-01-25 06:02:00,
2013-01-24 23:11:00,33.0,28.0,-100.00,NNE,29,0.0,3.0,82,0.00,,,0.00,0.000000,,2013-01-25 06:11:00,
2013-01-24 23:21:00,33.0,28.0,-100.00,NNE,29,0.0,3.0,82,0.00,,,0.00,0.000000,,2013-01-25 06:21:00,
2013-01-24 23:52:00,33.0,28.0,-100.00,WNW,296,2.0,4.0,82,0.00,,,0.00,0.000000,,2013-01-25 06:52:00,